• Join FlightAware (Why Join?)
  • Login
  • US Flag 
11:18AM EDT


 

Airport Tracker/Info


-or-


 

Live Flight TrackerFlight Track Log ✈ DAL981 ✈ 26-May-2012 ✈ KMSN - KMSP

Flight Track Log - Related Links

Times and Time Zones

All times are in EDT time to prevent confusion due to time zone crossing. See the DAL981 flight status page for this flight to view local times or setup timezone preferences in your user account.

Time Position Orientation Groundspeed Altitude Reporting Facility
EDT Latitude Longitude Course Direction KTS MPH feet Rate Location/Type
08:31AM 43.2592 -89.4467 322° Northwest 269 310 6,900  Level Chicago Center
08:35AM 43.5272 -89.7392 321° Northwest 323 372 17,000 2,340 Climbing Chicago Center
08:36AM 43.6000 -89.8200 317° Northwest 334 384 18,600 1,560 Climbing Chicago Center
08:38AM 43.7411 -90.0033 318° Northwest 361 415 21,800 1,440 Climbing Minneapolis Center
08:39AM 43.8189 -90.0994 318° Northwest 366 421 23,000 1,080 Climbing Minneapolis Center
08:40AM 43.9078 -90.2125 317° Northwest 379 436 24,000 1,260 Climbing Minneapolis Center
08:41AM 43.9900 -90.3206 302° West 397 457 25,600 1,200 Climbing Minneapolis Center
08:42AM 44.0497 -90.4531 303° West 402 463 26,500 900 Climbing Minneapolis Center
08:43AM 44.1139 -90.5886 303° West 413 475 27,500 720 Climbing Minneapolis Center
08:44AM 44.1756 -90.7217 302° West 418 481 28,000 240 Climbing Minneapolis Center
08:45AM 44.2369 -90.8578 302° West 426 490 28,000  Level Minneapolis Center
08:46AM 44.3006 -91.0000 304° West 426 490 28,000  Level Minneapolis Center
08:47AM 44.3639 -91.1308 300° West 420 483 28,000 -300 Level Minneapolis Center
08:48AM 44.4228 -91.2711 302° West 415 478 27,500 -1,320 Descending Minneapolis Center
08:49AM 44.4836 -91.4083 303° West 420 483 25,400 -2,400 Descending Minneapolis Center
08:50AM 44.5444 -91.5403 301° West 420 483 22,700 -2,580 Descending Minneapolis Center
08:51AM 44.6006 -91.6694 303° West 402 463 20,300 -2,460 Descending Minneapolis Center
08:52AM 44.6567 -91.7933 306° West 383 441 17,800 -2,340 Descending Minneapolis Center
08:53AM 44.7083 -91.8944 302° West 348 400 15,900 -2,220 Descending FAA TRACON SMA TRACON (SMA)
08:54AM 44.7436 -91.9750 299° West 349 402 14,300 -2,280 Descending FAA TRACON SMA TRACON (SMA)
08:55AM 44.7717 -92.0456 300° West 337 388 12,900 -2,400 Descending FAA TRACON SMA TRACON (SMA)
08:55AM 44.8039 -92.1233 301° West 334 384 11,100 -2,220 Descending FAA TRACON SMA TRACON (SMA)
08:56AM 44.8372 -92.2011 301° West 331 381 10,000 -840 Descending FAA TRACON SMA TRACON (SMA)
08:57AM 44.8669 -92.2706 292° West 339 390 10,000  Level FAA TRACON SMA TRACON (SMA)
08:57AM 44.8911 -92.3547 275° West 338 389 10,000  Level FAA TRACON SMA TRACON (SMA)
08:58AM 44.8961 -92.4447 276° West 333 383 10,000  Level FAA TRACON SMA TRACON (SMA)
08:59AM 44.9017 -92.5247 276° West 334 384 10,000  Level FAA TRACON SMA TRACON (SMA)
08:59AM 44.9078 -92.6142 275° West 331 381 10,000  Level FAA TRACON SMA TRACON (SMA)
09:00AM 44.9128 -92.7025 274° West 327 376 10,000  Level FAA TRACON SMA TRACON (SMA)
09:01AM 44.9175 -92.7906 275° West 325 374 10,000  Level FAA TRACON SMA TRACON (SMA)
09:01AM 44.9222 -92.8689 275° West 325 374 10,000 -180 Level FAA TRACON SMA TRACON (SMA)
09:02AM 44.9272 -92.9475 275° West 285 328 9,800 -1,080 Descending FAA TRACON SMA TRACON (SMA)
09:03AM 44.9311 -93.0133 288° West 273 314 8,600 -1,380 Descending FAA TRACON SMA TRACON (SMA)
09:03AM 44.9478 -93.0850 304° West 289 333 8,000 -480 Descending FAA TRACON SMA TRACON (SMA)
09:04AM 44.9781 -93.1492 303° West 281 323 8,000 -480 Level FAA TRACON SMA TRACON (SMA)
09:05AM 45.0036 -93.2058 295° West 242 278 7,400 -1,320 Descending FAA TRACON SMA TRACON (SMA)
09:05AM 45.0208 -93.2572 283° West 236 272 6,300 -1,740 Descending FAA TRACON SMA TRACON (SMA)
09:06AM 45.0308 -93.3192 263° West 239 275 5,100 -1,740 Descending FAA TRACON SMA TRACON (SMA)
09:07AM 45.0256 -93.3786 200° South 226 260 4,000 -1,020 Descending FAA TRACON SMA TRACON (SMA)
09:07AM 44.9975 -93.3931 159° South 197 227 3,800 -480 Descending FAA TRACON SMA TRACON (SMA)
09:08AM 44.9686 -93.3778 135° Southeast 156 180 3,400 -720 Descending FAA TRACON SMA TRACON (SMA)
09:09AM 44.9486 -93.3492 122° Southeast 154 177 2,900 -780 Descending FAA TRACON SMA TRACON (SMA)
09:09AM 44.9356 -93.3200 121° Southeast 141 162 2,400 -720 Descending FAA TRACON SMA TRACON (SMA)
09:10AM 44.9225 -93.2892 122° Southeast 132 152 2,000 -780 Descending FAA TRACON SMA TRACON (SMA)
09:11AM 44.9081 -93.2564 121° Southeast 143 165 1,400 -780 Descending FAA TRACON SMA TRACON (SMA)
09:11AM 44.8967 -93.2297 121° Southeast 148 170 1,000 -600 Descending FAA TRACON SMA TRACON (SMA)